Map

Track Data

SID SEASON NUMBER BASIN SUBBASIN NAME ISO_TIME NATURE LAT LON WMO_WIND WMO_PRES WMO_AGENCY TRACK_TYPE DIST2LAND LANDFALL IFLAG USA_AGENCY USA_ATCF_ID USA_LAT USA_LON USA_RECORD USA_STATUS USA_WIND USA_PRES USA_SSHS USA_R34_NE USA_R34_SE USA_R34_SW USA_R34_NW USA_R50_NE USA_R50_SE USA_R50_SW USA_R50_NW USA_R64_NE USA_R64_SE USA_R64_SW USA_R64_NW USA_POCI USA_ROCI USA_RMW USA_EYE TOKYO_LAT TOKYO_LON TOKYO_GRADE TOKYO_WIND TOKYO_PRES TOKYO_R50_DIR TOKYO_R50_LONG TOKYO_R50_SHORT TOKYO_R30_DIR TOKYO_R30_LONG TOKYO_R30_SHORT TOKYO_LAND CMA_LAT CMA_LON CMA_CAT CMA_WIND CMA_PRES HKO_LAT HKO_LON HKO_CAT HKO_WIND HKO_PRES NEWDELHI_LAT NEWDELHI_LON NEWDELHI_GRADE NEWDELHI_WIND NEWDELHI_PRES NEWDELHI_CI NEWDELHI_DP NEWDELHI_POCI REUNION_LAT REUNION_LON REUNION_TYPE REUNION_WIND REUNION_PRES REUNION_TNUM REUNION_CI REUNION_RMW REUNION_R34_NE REUNION_R34_SE REUNION_R34_SW REUNION_R34_NW REUNION_R50_NE REUNION_R50_SE REUNION_R50_SW REUNION_R50_NW REUNION_R64_NE REUNION_R64_SE REUNION_R64_SW REUNION_R64_NW BOM_LAT BOM_LON BOM_TYPE BOM_WIND BOM_PRES BOM_TNUM BOM_CI BOM_RMW BOM_R34_NE BOM_R34_SE BOM_R34_SW BOM_R34_NW BOM_R50_NE BOM_R50_SE BOM_R50_SW BOM_R50_NW BOM_R64_NE BOM_R64_SE BOM_R64_SW BOM_R64_NW BOM_ROCI BOM_POCI BOM_EYE BOM_POS_METHOD BOM_PRES_METHOD NADI_LAT NADI_LON NADI_CAT NADI_WIND NADI_PRES WELLINGTON_LAT WELLINGTON_LON WELLINGTON_WIND WELLINGTON_PRES DS824_LAT DS824_LON DS824_STAGE DS824_WIND DS824_PRES TD9636_LAT TD9636_LON TD9636_STAGE TD9636_WIND TD9636_PRES TD9635_LAT TD9635_LON TD9635_WIND TD9635_PRES TD9635_ROCI NEUMANN_LAT NEUMANN_LON NEUMANN_CLASS NEUMANN_WIND NEUMANN_PRES MLC_LAT MLC_LON MLC_CLASS MLC_WIND MLC_PRES USA_GUST BOM_GUST BOM_GUST_PER REUNION_GUST REUNION_GUST_PER USA_SEAHGT USA_SEARAD_NE USA_SEARAD_SE USA_SEARAD_SW USA_SEARAD_NW STORM_SPEED STORM_DIR
1932312N08137 1932 72 WP MM NOT_NAMED 1932-11-06 21:00:00 NR 7.70000 137.300 main 960 960 __________O___ -1 7.70000 137.300 4 1 107
1932312N08137 1932 72 WP MM NOT_NAMED 1932-11-07 00:00:00 NR 7.68866 137.339 main 960 960 __________P___ -1 7.68866 137.339 4 0 0
1932312N08137 1932 72 WP MM NOT_NAMED 1932-11-07 03:00:00 NR 7.70187 137.322 main 960 957 __________P___ -1 7.70187 137.322 4 2 298
1932312N08137 1932 72 WP MM NOT_NAMED 1932-11-07 06:00:00 NR 7.76418 137.194 main 968 965 __________P___ -1 7.76418 137.194 4 5 295
1932312N08137 1932 72 WP MM NOT_NAMED 1932-11-07 09:00:00 NR 7.90000 136.900 main 974 972 __________O___ -1 7.90000 136.900 4 9 295
1932312N08137 1932 72 WP MM NOT_NAMED 1932-11-07 12:00:00 NR 8.12317 136.406 main 990 990 __________P___ -1 8.12317 136.406 4 12 294
1932312N08137 1932 72 WP MM NOT_NAMED 1932-11-07 15:00:00 NR 8.40600 135.771 main 1016 942 __________P___ -1 8.40600 135.771 4 14 294
1932312N08137 1932 72 WP MM NOT_NAMED 1932-11-07 18:00:00 NR 8.71072 135.075 main 942 871 __________P___ -1 8.71072 135.075 4 15 294
1932312N08137 1932 72 WP MM NOT_NAMED 1932-11-07 21:00:00 NR 9.00000 134.400 main 871 820 __________O___ -1 9.00000 134.400 4 13 293
1932312N08137 1932 72 WP MM NOT_NAMED 1932-11-08 00:00:00 NR 9.20873 133.880 main 820 772 __________P___ -1 9.20873 133.880 4 11 292
1932312N08137 1932 72 WP MM NOT_NAMED 1932-11-08 03:00:00 NR 9.39910 133.392 main 772 725 __________P___ -1 9.39910 133.392 4 10 292
1932312N08137 1932 72 WP MM NOT_NAMED 1932-11-08 06:00:00 NR 9.58997 132.908 main 725 679 __________P___ -1 9.58997 132.908 4 11 292
1932312N08137 1932 72 WP MM NOT_NAMED 1932-11-08 09:00:00 NR 9.80000 132.400 main 679 621 __________O___ -1 9.80000 132.400 4 12 294
1932312N08137 1932 72 WP MM NOT_NAMED 1932-11-08 12:00:00 NR 10.0700 131.797 main 621 562 __________P___ -1 10.0700 131.797 4 13 295
1932312N08137 1932 72 WP MM NOT_NAMED 1932-11-08 15:00:00 NR 10.3580 131.171 main 564 507 __________P___ -1 10.3580 131.171 4 13 295
1932312N08137 1932 72 WP MM NOT_NAMED 1932-11-08 18:00:00 NR 10.6419 130.559 main 507 457 __________P___ -1 10.6419 130.559 4 13 295
1932312N08137 1932 72 WP MM NOT_NAMED 1932-11-08 21:00:00 NR 10.9000 130.000 main 457 415 __________O___ -1 10.9000 130.000 4 10 294
1932312N08137 1932 72 WP MM NOT_NAMED 1932-11-09 00:00:00 NR 11.0702 129.586 main 415 371 __________P___ -1 11.0702 129.586 4 8 293
1932312N08137 1932 72 WP MM NOT_NAMED 1932-11-09 03:00:00 NR 11.2184 129.221 main 371 340 __________P___ -1 11.2184 129.221 4 8 293
1932312N08137 1932 72 WP MM NOT_NAMED 1932-11-09 06:00:00 NR 11.3826 128.845 main 330 291 __________P___ -1 11.3826 128.845 4 9 295
1932312N08137 1932 72 WP MM NOT_NAMED 1932-11-09 09:00:00 NR 11.6000 128.400 main 291 240 __________O___ -1 11.6000 128.400 4 12 298
1932312N08137 1932 72 WP MM NOT_NAMED 1932-11-09 12:00:00 NR 11.9347 127.765 main 240 174 __________P___ -1 11.9347 127.765 4 15 299
1932312N08137 1932 72 WP MM NOT_NAMED 1932-11-09 15:00:00 NR 12.3214 127.059 main 174 112 __________P___ -1 12.3214 127.059 4 16 300
1932312N08137 1932 72 WP MM NOT_NAMED 1932-11-09 18:00:00 NR 12.7222 126.349 main 103 85 __________P___ -1 12.7222 126.349 4 15 300
1932312N08137 1932 72 WP MM NOT_NAMED 1932-11-09 21:00:00 NR 13.1000 125.700 main 86 79 __________O___ -1 13.1000 125.700 4 13 300
1932312N08137 1932 72 WP MM NOT_NAMED 1932-11-10 00:00:00 NR 13.3747 125.166 main 92 34 __________P___ -1 13.3747 125.166 4 11 299
1932312N08137 1932 72 WP MM NOT_NAMED 1932-11-10 03:00:00 NR 13.6268 124.706 main 34 0 __________P___ -1 13.6268 124.706 4 10 302
1932312N08137 1932 72 WP MM NOT_NAMED 1932-11-10 06:00:00 NR 13.8906 124.319 main 0 0 __________P___ -1 13.8906 124.319 4 9 310
1932312N08137 1932 72 WP MM NOT_NAMED 1932-11-10 09:00:00 NR 14.2000 124.000 main 24 24 __________O___ -1 14.2000 124.000 4 9 322
1932312N08137 1932 72 WP MM NOT_NAMED 1932-11-10 12:00:00 NR 14.6277 123.727 main 78 78 __________P___ -1 14.6277 123.727 4 10 333
1932312N08137 1932 72 WP MM NOT_NAMED 1932-11-10 15:00:00 NR 15.0995 123.517 main 119 119 __________P___ -1 15.0995 123.517 4 10 339
1932312N08137 1932 72 WP MM NOT_NAMED 1932-11-10 18:00:00 NR 15.5716 123.349 main 135 109 __________P___ -1 15.5716 123.349 4 10 341
1932312N08137 1932 72 WP MM NOT_NAMED 1932-11-10 21:00:00 NR 16.0000 123.200 main 109 81 __________O___ -1 16.0000 123.200 4 8 336
1932312N08137 1932 72 WP MM NOT_NAMED 1932-11-11 00:00:00 NR 16.2847 123.015 main 81 61 __________P___ -1 16.2847 123.015 4 6 327
1932312N08137 1932 72 WP MM NOT_NAMED 1932-11-11 03:00:00 NR 16.5275 122.847 main 54 24 __________P___ -1 16.5275 122.847 4 6 329
1932312N08137 1932 72 WP MM NOT_NAMED 1932-11-11 06:00:00 NR 16.7816 122.706 main 24 10 __________P___ -1 16.7816 122.706 4 6 338
1932312N08137 1932 72 WP MM NOT_NAMED 1932-11-11 09:00:00 NR 17.1000 122.600 main 15 10 __________O___ -1 17.1000 122.600 4 8 346
1932312N08137 1932 72 WP MM NOT_NAMED 1932-11-11 12:00:00 NR 17.5854 122.491 main 35 21 __________P___ -1 17.5854 122.491 4 11 351
1932312N08137 1932 72 WP MM NOT_NAMED 1932-11-11 15:00:00 NR 18.1347 122.423 main 21 10 __________P___ -1 18.1347 122.423 4 11 356
1932312N08137 1932 72 WP MM NOT_NAMED 1932-11-11 18:00:00 NR 18.6916 122.419 main 35 35 __________P___ -1 18.6916 122.419 4 11 4
1932312N08137 1932 72 WP MM NOT_NAMED 1932-11-11 21:00:00 NR 19.2000 122.500 main 91 91 __________O___ -1 19.2000 122.500 4 9 11
1932312N08137 1932 72 WP MM NOT_NAMED 1932-11-12 00:00:00 NR 19.5201 122.594 main 127 127 __________P___ -1 19.5201 122.594 4 7 24
1932312N08137 1932 72 WP MM NOT_NAMED 1932-11-12 03:00:00 NR 19.7949 122.785 main 165 165 __________P___ -1 19.7949 122.785 4 8 40
1932312N08137 1932 72 WP MM NOT_NAMED 1932-11-12 06:00:00 NR 20.0974 123.109 main 207 207 __________P___ -1 20.0974 123.109 4 10 47
1932312N08137 1932 72 WP MM NOT_NAMED 1932-11-12 09:00:00 NR 20.5000 123.600 main 271 271 __________O___ -1 20.5000 123.600 4 16 49
1932312N08137 1932 72 WP MM NOT_NAMED 1932-11-12 12:00:00 NR 21.1410 124.373 main 372 370 __________P___ -1 21.1410 124.373 4 21 49
1932312N08137 1932 72 WP MM NOT_NAMED 1932-11-12 15:00:00 NR 21.8763 125.302 main 422 422 __________P___ -1 21.8763 125.302 4 23 50
1932312N08137 1932 72 WP MM NOT_NAMED 1932-11-12 18:00:00 NR 22.6227 126.257 main 495 491 __________P___ -1 22.6227 126.257 4 22 49
1932312N08137 1932 72 WP MM NOT_NAMED 1932-11-12 21:00:00 NR 23.3000 127.100 main 545 545 __________O___ -1 23.3000 127.100 4 15 47
1932312N08137 1932 72 WP MM NOT_NAMED 1932-11-13 00:00:00 NR 23.6784 127.483 main 575 572 __________P___ -1 23.6784 127.483 4 9 40
1932312N08137 1932 72 WP MM NOT_NAMED 1932-11-13 03:00:00 NR 24.0030 127.754 main 596 594 __________P___ -1 24.0030 127.754 4 9 38
1932312N08137 1932 72 WP MM NOT_NAMED 1932-11-13 06:00:00 NR 24.4014 128.097 main 619 618 __________P___ -1 24.4014 128.097 4 13 41
1932312N08137 1932 72 WP MM NOT_NAMED 1932-11-13 09:00:00 NR 25.0000 128.700 main 674 576 __________O___ -1 25.0000 128.700 4 23 46
1932312N08137 1932 72 WP MM NOT_NAMED 1932-11-13 12:00:00 NR 26.0103 129.916 main 563 438 __________P___ -1 26.0103 129.916 4 33 48
1932312N08137 1932 72 WP MM NOT_NAMED 1932-11-13 15:00:00 NR 27.2059 131.419 main 429 359 __________P___ -1 27.2059 131.419 4 37 49
1932312N08137 1932 72 WP MM NOT_NAMED 1932-11-13 18:00:00 NR 28.4465 133.017 main 365 344 __________P___ -1 28.4465 133.017 4 36 49
1932312N08137 1932 72 WP MM NOT_NAMED 1932-11-13 21:00:00 NR 29.6000 134.500 main 358 335 __________O___ -1 29.6000 134.500 4 30 48
1932312N08137 1932 72 WP MM NOT_NAMED 1932-11-14 00:00:00 NR 30.4623 135.564 main 324 251 __________P___ -1 30.4623 135.564 4 24 46
1932312N08137 1932 72 WP MM NOT_NAMED 1932-11-14 03:00:00 NR 31.2398 136.467 main 254 203 __________P___ -1 31.2398 136.467 4 21 44
1932312N08137 1932 72 WP MM NOT_NAMED 1932-11-14 06:00:00 NR 31.9982 137.285 main 209 200 __________P___ -1 31.9982 137.285 4 21 42
1932312N08137 1932 72 WP MM NOT_NAMED 1932-11-14 09:00:00 NR 32.8000 138.100 main 200 100 __________O___ -1 32.8000 138.100 4 23 38
1932312N08137 1932 72 WP MM NOT_NAMED 1932-11-14 12:00:00 NR 33.8003 138.988 main 91 11 __________P___ -1 33.8003 138.988 4 25 36
1932312N08137 1932 72 WP MM NOT_NAMED 1932-11-14 15:00:00 NR 34.8389 139.907 main 11 0 __________P___ -1 34.8389 139.907 4 26 38
1932312N08137 1932 72 WP MM NOT_NAMED 1932-11-14 18:00:00 NR 35.8334 140.897 main 11 11 __________P___ -1 35.8334 140.897 4 25 42
1932312N08137 1932 72 WP MM NOT_NAMED 1932-11-14 21:00:00 NR 36.7000 142.000 main 94 94 __________O___ -1 36.7000 142.000 4 24 55
1932312N08137 1932 72 WP MM NOT_NAMED 1932-11-15 00:00:00 NR 37.2128 143.312 main 199 199 __________P___ -1 37.2128 143.312 4 23 67
1932312N08137 1932 72 WP MM NOT_NAMED 1932-11-15 03:00:00 NR 37.6028 144.718 main 290 290 __________P___ -1 37.6028 144.718 4 24 70
1932312N08137 1932 72 WP MM NOT_NAMED 1932-11-15 06:00:00 NR 38.0155 146.137 main 384 384 __________P___ -1 38.0155 146.137 4 24 66
1932312N08137 1932 72 WP MM NOT_NAMED 1932-11-15 09:00:00 NR 38.6000 147.500 main 475 475 __________O___ -1 38.6000 147.500 4 26 52
1932312N08137 1932 72 WP MM NOT_NAMED 1932-11-15 12:00:00 NR 39.6554 148.808 main 476 456 __________P___ -1 39.6554 148.808 4 30 41
1932312N08137 1932 72 WP MM NOT_NAMED 1932-11-15 15:00:00 NR 40.8841 150.068 main 456 404 __________P___ -1 40.8841 150.068 4 31 37
1932312N08137 1932 72 WP MM NOT_NAMED 1932-11-15 18:00:00 NR 42.1205 151.249 main 404 332 __________P___ -1 42.1205 151.249 4 28 36
1932312N08137 1932 72 WP MM NOT_NAMED 1932-11-15 21:00:00 NR 43.2000 152.300 main 336 326 __________O___ -1 43.2000 152.300 4 21 39
1932312N08137 1932 72 WP MM NOT_NAMED 1932-11-16 00:00:00 NR 43.7949 153.090 main 328 323 __________P___ -1 43.7949 153.090 4 15 45
1932312N08137 1932 72 WP MM NOT_NAMED 1932-11-16 03:00:00 NR 44.2406 153.732 main 332 331 __________P___ -1 44.2406 153.732 4 13 45
1932312N08137 1932 72 WP MM NOT_NAMED 1932-11-16 06:00:00 NR 44.6917 154.355 main 347 347 __________P___ -1 44.6917 154.355 4 14 43
1932312N08137 1932 72 WP MM NOT_NAMED 1932-11-16 09:00:00 NR 45.3000 155.100 main 374 374 __________O___ -1 45.3000 155.100 4 19 39
1932312N08137 1932 72 WP MM NOT_NAMED 1932-11-16 12:00:00 NR 46.1755 156.087 main 425 337 __________P___ -1 46.1755 156.087 4 25 38
1932312N08137 1932 72 WP MM NOT_NAMED 1932-11-16 15:00:00 NR 47.2732 157.312 main 330 279 __________P___ -1 47.2732 157.312 4 29 38
1932312N08137 1932 72 WP MM NOT_NAMED 1932-11-16 18:00:00 NR 48.5092 158.734 main 276 261 __________P___ -1 48.5092 158.734 4 32 38
1932312N08137 1932 72 WP MM NOT_NAMED 1932-11-16 21:00:00 NR 49.8000 160.300 main 261 __________O___ -1 49.8000 160.300 4 33 38

Digital Typhoon Data and Search

About IBTrACS Database

This database is a web-friendly format of International Best Track Archive for Climate Stewardship (IBTrACS), a global best track data archive curated by NOAA dating back to 1842.

Updated: 2021-12-01